Aérodrome :
LOGIN :

S'inscrire | Disclaimer

   EN    FR    IT 

 










Légende :    VFR   VFR Marginal   IFR   IFR Intensif   IFR Très Intensif
Visi : 
Plafond : 
>= 8 km
>= 3000ft
5 à 8 km
1000 à 3000 ft
1500m à 5 km
500 à 1000 ft
800 à 1500m
200 à 500 ft
< 800m
< 200 ft
Symboles :   Orages  Brouillard  Fortes neiges  Fortes précipitations  Vent > 20 kt
SIGMETs :   Divers  Orages  Givrage  Turbulence  Onde Orograph.  Cendres Volcan.






- Altitude de l'aérodrome : 194 ft


EBCV - Chièvres

DERNIER METAR :
  • 262355Z AUTO 03003KT 9999 NCD 13/07 Q1034 BLU

METARs EXPIRÉS :
  • 262325Z AUTO 03004KT 9999 NCD 14/08 Q1034 BLU
  • 262255Z AUTO 02006KT 9999 NCD 14/07 Q1034 BLU
  • 262225Z AUTO 01006KT 9999 NCD 15/07 Q1034 BLU
  • 262155Z AUTO 02007KT 9999 NCD 16/07 Q1034 BLU

TAF TAF EBCV
Valide du 26 à 19h jusqu'au 27 à 07h UTC


261541Z 2619/2707 01006KT 9999 FEW080
TEMPO 2621/2707 VRB03KT BY EBWM



MET'MAP, la Météo Aéronautique d'un coup d'oeil ! - Copyright ORBIFLY Décembre 2007 - Disclaimer

ORBIFLY MET'MAP TEAM :

Programmation & Développement : Alexandra Zaïnal
Sur une idée originale de : Baudouin d'Aumeries
Assistance à la programmation : Marc-Olivier Méhu
Soutien technique & logistique : Manuel Goepfert

Contact : metmap@orbifly.com




SOURCES & CREDITS :

   NOAA